Terminal Aerodrome Forecast
Issued by NWS Cleveland, OH

Home | Current Version | Previous Version | Text Only | Print | Product List | Glossary On
Versions: 1 2 3 4 5 6 7 8 9 10 11 12 13 14 15 16 17
000
FTUS41 KCLE 021123
TAFERI
TAF
KERI 021123Z 0212/0312 03003KT P6SM BKN015
      TEMPO 0212/0215 SCT015 BKN035
     FM021500 02006KT P6SM BKN045
     FM021800 02008KT P6SM SCT250
     FM030100 05005KT P6SM SKC
     FM030500 07006KT P6SM SKC=

USA.gov is the U.S. government's official web portal to all federal, state and local government web resources and services.